createdAt,value
2019-02-21T04:10:58.139Z,7.05
2019-02-21T04:19:10.686Z,6.98
2019-02-21T04:41:12.287Z,6.84
2019-02-21T07:48:39.470Z,6.86
2019-02-21T07:51:45.434Z,7.02
2019-02-21T07:55:01.372Z,6.99
2019-02-21T08:02:56.924Z,7.01
2019-02-21T08:07:19.627Z,6.98
2019-02-21T08:15:06.533Z,7.10
2019-02-21T08:21:48.659Z,7.12
2019-02-21T08:32:54.142Z,7.21
2019-02-21T08:47:08.923Z,7.28
2019-02-21T08:54:25.553Z,7.22
2019-02-21T09:06:11.124Z,7.33
2019-02-21T09:10:31.293Z,7.37
2019-02-21T09:17:40.055Z,7.49
2019-02-21T09:20:43.950Z,7.45
2019-02-21T09:23:47.755Z,7.59
2019-02-21T10:14:21.756Z,7.71
2019-02-21T10:17:25.734Z,7.60
2019-02-21T12:11:58.211Z,8.23
2019-02-21T16:59:19.918Z,8.05
2019-02-21T17:28:57.237Z,8.11
2019-02-21T17:32:01.145Z,7.94
2019-02-21T17:35:05.189Z,8.04
2019-02-21T17:38:09.003Z,8.03
2019-02-21T17:41:12.911Z,8.05
2019-02-21T17:44:16.751Z,7.93
2019-02-21T17:47:22.402Z,8.00
2019-02-21T17:50:26.184Z,8.03
2019-02-21T17:53:30.087Z,7.94
2019-02-21T17:56:33.944Z,7.87
2019-02-21T17:59:37.912Z,7.95
2019-02-21T18:02:41.742Z,8.03
2019-02-21T18:05:45.638Z,7.97
2019-02-21T18:08:49.451Z,7.96
2019-02-21T18:11:53.315Z,7.89
2019-02-21T18:14:57.125Z,7.94
2019-02-21T18:18:00.957Z,7.89
2019-02-21T18:21:04.845Z,7.91
2019-02-21T18:24:08.727Z,7.92
2019-02-21T18:27:12.621Z,7.91
2019-02-21T18:30:16.713Z,7.82
2019-02-21T18:33:20.561Z,7.93
2019-02-21T18:36:24.488Z,7.91
2019-02-21T18:39:28.397Z,7.91
2019-02-21T18:42:32.221Z,7.92
2019-02-21T18:45:36.192Z,7.91
2019-02-21T18:48:40.210Z,7.98
2019-02-21T18:51:44.024Z,8.04
2019-02-21T18:54:47.868Z,7.94
2019-02-21T18:57:51.690Z,7.91
2019-02-21T19:00:55.584Z,7.86
2019-02-21T19:03:59.410Z,7.96
2019-02-21T19:07:03.273Z,7.89
2019-02-21T19:10:08.979Z,7.90
2019-02-21T19:13:12.882Z,7.73
2019-02-21T19:16:16.983Z,7.84
2019-02-21T19:19:20.992Z,7.75
2019-02-21T19:22:24.978Z,7.72
2019-02-21T19:25:28.966Z,7.73
2019-02-21T19:28:32.869Z,7.72
2019-02-21T19:31:36.671Z,7.65
2019-02-21T19:34:40.665Z,7.68
2019-02-21T19:37:44.633Z,7.68
2019-02-21T19:40:48.587Z,7.65
2019-02-21T19:43:52.497Z,7.68
2019-02-21T19:46:56.440Z,7.75
2019-02-21T19:50:00.446Z,7.75
2019-02-21T19:53:04.619Z,7.73
2019-02-21T19:56:08.508Z,7.58
2019-02-21T19:59:12.398Z,7.64
2019-02-21T20:02:16.383Z,7.65
2019-02-21T20:05:20.329Z,7.69
2019-02-21T20:08:24.213Z,7.73
2019-02-21T20:11:28.045Z,7.63
2019-02-21T20:14:31.996Z,7.59
2019-02-21T20:17:35.894Z,7.57
2019-02-21T20:20:39.843Z,7.57
2019-02-21T20:23:43.702Z,7.59
2019-02-21T20:26:47.582Z,7.65
2019-02-21T20:29:51.444Z,7.60
2019-02-21T20:32:55.267Z,7.60
2019-02-21T20:35:59.351Z,7.59
2019-02-21T20:39:04.149Z,7.53
2019-02-21T20:42:08.041Z,7.55
2019-02-21T20:45:12.014Z,7.66
2019-02-21T20:48:17.915Z,7.68
2019-02-21T20:51:21.814Z,7.61
2019-02-21T20:54:25.642Z,7.53
2019-02-21T20:57:29.709Z,7.51
2019-02-21T21:00:33.543Z,7.50
2019-02-21T21:03:37.368Z,7.61
2019-02-21T21:06:41.292Z,7.60
2019-02-21T21:09:45.109Z,7.57
2019-02-21T21:12:49.020Z,7.56
2019-02-21T21:15:52.862Z,7.58
2019-02-21T21:18:56.705Z,7.68
2019-02-21T21:22:00.527Z,7.68
2019-02-21T21:25:04.635Z,7.67
2019-02-21T21:28:08.468Z,7.56
2019-02-21T21:31:12.386Z,7.62
2019-02-21T21:34:17.933Z,7.65
2019-02-21T21:37:23.397Z,7.59
2019-02-21T21:40:27.282Z,7.50
2019-02-21T21:43:31.608Z,7.53
2019-02-21T21:46:35.555Z,7.52
2019-02-21T21:49:39.469Z,7.58
2019-02-21T21:52:43.587Z,7.58
2019-02-21T21:55:47.632Z,7.58
2019-02-21T21:58:51.510Z,7.58
2019-02-21T22:01:56.420Z,7.52
2019-02-21T22:05:00.603Z,7.54
2019-02-21T22:08:04.522Z,7.51
2019-02-21T22:11:09.579Z,7.57
2019-02-21T22:14:14.297Z,7.55
2019-02-21T22:17:18.504Z,7.50
2019-02-21T22:20:22.826Z,7.52
2019-02-21T22:23:27.175Z,7.50
2019-02-21T22:26:31.261Z,7.61
2019-02-21T22:29:35.224Z,7.60
2019-02-21T22:32:39.209Z,7.62
2019-02-21T22:35:43.423Z,7.56
2019-02-21T22:38:47.256Z,7.62
2019-02-21T22:41:51.511Z,7.62
2019-02-21T22:44:55.349Z,7.56
2019-02-21T22:47:59.314Z,7.61
2019-02-21T22:51:03.193Z,7.56
2019-02-21T22:54:07.408Z,7.53
2019-02-21T22:57:11.387Z,7.53
2019-02-21T23:00:58.875Z,7.57
2019-02-21T23:04:41.814Z,7.61
2019-02-21T23:07:58.589Z,7.58
2019-02-21T23:11:02.221Z,7.54
2019-02-21T23:14:06.219Z,7.58
2019-02-21T23:17:10.351Z,7.77
2019-02-21T23:20:14.316Z,7.77
2019-02-21T23:23:18.194Z,7.66
2019-02-21T23:26:22.101Z,7.58
2019-02-21T23:29:26.070Z,7.48
2019-02-21T23:32:29.978Z,7.46
2019-02-21T23:35:34.020Z,7.44
2019-02-21T23:38:37.914Z,7.40
2019-02-21T23:41:41.838Z,7.34
2019-02-21T23:44:46.113Z,7.22
2019-02-21T23:47:50.209Z,7.16
2019-02-21T23:50:54.210Z,7.19
2019-02-21T23:54:03.096Z,7.20
2019-02-21T23:57:04.103Z,7.17
